sensor_id;sensor_type;location;lat;lon;timestamp;pressure;altitude;pressure_sealevel;temperature;humidity
60820;BME280;46641;48.904;9.126;2024-03-17T00:01:17;99325.09;;;14.95;63.13
60820;BME280;46641;48.904;9.126;2024-03-17T00:06:08;99326.53;;;14.90;62.75
60820;BME280;46641;48.904;9.126;2024-03-17T00:10:59;99324.88;;;14.89;63.06
60820;BME280;46641;48.904;9.126;2024-03-17T00:15:50;99318.09;;;14.86;63.05
60820;BME280;46641;48.904;9.126;2024-03-17T00:20:40;99327.66;;;14.87;62.96
60820;BME280;46641;48.904;9.126;2024-03-17T00:25:31;99324.38;;;14.85;63.15
60820;BME280;46641;48.904;9.126;2024-03-17T00:30:21;99313.44;;;14.80;63.33
60820;BME280;46641;48.904;9.126;2024-03-17T00:35:12;99313.75;;;14.77;63.20
60820;BME280;46641;48.904;9.126;2024-03-17T00:40:10;99312.25;;;14.75;63.16
60820;BME280;46641;48.904;9.126;2024-03-17T00:45:01;99310.75;;;14.72;63.42
60820;BME280;46641;48.904;9.126;2024-03-17T00:49:52;99304.81;;;14.70;63.33
60820;BME280;46641;48.904;9.126;2024-03-17T00:54:43;99297.91;;;14.69;63.22
60820;BME280;46641;48.904;9.126;2024-03-17T00:59:33;99290.31;;;14.66;63.07
60820;BME280;46641;48.904;9.126;2024-03-17T01:04:24;99294.91;;;14.64;63.26
60820;BME280;46641;48.904;9.126;2024-03-17T01:09:14;99284.84;;;14.59;63.28
60820;BME280;46641;48.904;9.126;2024-03-17T01:14:04;99294.53;;;14.59;63.21
60820;BME280;46641;48.904;9.126;2024-03-17T01:18:55;99284.16;;;14.57;63.21
60820;BME280;46641;48.904;9.126;2024-03-17T01:23:45;99282.66;;;14.55;63.28
60820;BME280;46641;48.904;9.126;2024-03-17T01:28:37;99287.41;;;14.51;63.30
60820;BME280;46641;48.904;9.126;2024-03-17T01:33:28;99279.63;;;14.49;63.50
60820;BME280;46641;48.904;9.126;2024-03-17T01:38:18;99276.31;;;14.47;63.51
60820;BME280;46641;48.904;9.126;2024-03-17T01:43:11;99269.53;;;14.45;63.48
60820;BME280;46641;48.904;9.126;2024-03-17T01:48:04;99255.72;;;14.43;63.67
60820;BME280;46641;48.904;9.126;2024-03-17T01:53:02;99248.94;;;14.40;63.67
60820;BME280;46641;48.904;9.126;2024-03-17T01:57:54;99256.16;;;14.38;63.56
60820;BME280;46641;48.904;9.126;2024-03-17T02:02:45;99254.50;;;14.37;63.66
60820;BME280;46641;48.904;9.126;2024-03-17T02:07:35;99249.25;;;14.37;63.61
60820;BME280;46641;48.904;9.126;2024-03-17T02:12:28;99241.66;;;14.34;63.57
60820;BME280;46641;48.904;9.126;2024-03-17T02:17:18;99239.16;;;14.33;63.56
60820;BME280;46641;48.904;9.126;2024-03-17T02:22:14;99235.03;;;14.30;63.41
60820;BME280;46641;48.904;9.126;2024-03-17T02:27:06;99232.72;;;14.27;63.87
60820;BME280;46641;48.904;9.126;2024-03-17T02:31:56;99220.50;;;14.26;63.86
60820;BME280;46641;48.904;9.126;2024-03-17T02:36:46;99226.06;;;14.23;63.94
60820;BME280;46641;48.904;9.126;2024-03-17T02:41:36;99222.63;;;14.22;63.80
60820;BME280;46641;48.904;9.126;2024-03-17T02:46:27;99219.16;;;14.22;63.86
60820;BME280;46641;48.904;9.126;2024-03-17T02:51:19;99209.75;;;14.19;63.89
60820;BME280;46641;48.904;9.126;2024-03-17T02:56:09;99207.31;;;14.18;63.89
60820;BME280;46641;48.904;9.126;2024-03-17T03:00:59;99206.47;;;14.17;63.90
60820;BME280;46641;48.904;9.126;2024-03-17T03:05:50;99207.59;;;14.15;64.10
60820;BME280;46641;48.904;9.126;2024-03-17T03:10:46;99211.34;;;14.12;64.10
60820;BME280;46641;48.904;9.126;2024-03-17T03:15:36;99215.94;;;14.10;64.12
60820;BME280;46641;48.904;9.126;2024-03-17T03:20:27;99209.84;;;14.10;64.24
60820;BME280;46641;48.904;9.126;2024-03-17T03:25:18;99206.69;;;14.06;64.26
60820;BME280;46641;48.904;9.126;2024-03-17T03:30:09;99211.16;;;14.06;64.04
60820;BME280;46641;48.904;9.126;2024-03-17T03:35:00;99203.56;;;14.02;64.26
60820;BME280;46641;48.904;9.126;2024-03-17T03:39:50;99209.94;;;14.00;64.35
60820;BME280;46641;48.904;9.126;2024-03-17T03:44:41;99216.03;;;14.00;64.25
60820;BME280;46641;48.904;9.126;2024-03-17T03:49:31;99203.84;;;13.99;64.26
60820;BME280;46641;48.904;9.126;2024-03-17T03:54:21;99201.38;;;13.98;64.42
60820;BME280;46641;48.904;9.126;2024-03-17T03:59:12;99207.63;;;13.97;64.43
60820;BME280;46641;48.904;9.126;2024-03-17T04:04:02;99208.75;;;13.94;64.35
60820;BME280;46641;48.904;9.126;2024-03-17T04:08:53;99199.50;;;13.90;64.25
60820;BME280;46641;48.904;9.126;2024-03-17T04:13:43;99203.94;;;13.90;64.26
60820;BME280;46641;48.904;9.126;2024-03-17T04:18:34;99197.84;;;13.89;64.40
60820;BME280;46641;48.904;9.126;2024-03-17T04:23:28;99201.47;;;13.88;64.28
60820;BME280;46641;48.904;9.126;2024-03-17T04:28:18;99218.38;;;13.86;64.33
60820;BME280;46641;48.904;9.126;2024-03-17T04:33:12;99212.31;;;13.85;64.24
60820;BME280;46641;48.904;9.126;2024-03-17T04:38:03;99201.25;;;13.82;64.57
60820;BME280;46641;48.904;9.126;2024-03-17T04:42:53;99200.41;;;13.81;64.55
60820;BME280;46641;48.904;9.126;2024-03-17T04:47:43;99206.66;;;13.80;64.53
60820;BME280;46641;48.904;9.126;2024-03-17T04:52:34;99199.88;;;13.77;64.65
60820;BME280;46641;48.904;9.126;2024-03-17T04:57:24;99211.38;;;13.76;64.45
60820;BME280;46641;48.904;9.126;2024-03-17T05:02:14;99215.97;;;13.74;64.55
60820;BME280;46641;48.904;9.126;2024-03-17T05:07:05;99216.13;;;13.73;64.77
60820;BME280;46641;48.904;9.126;2024-03-17T05:11:55;99203.97;;;13.72;64.79
60820;BME280;46641;48.904;9.126;2024-03-17T05:16:48;99204.91;;;13.71;64.78
60820;BME280;46641;48.904;9.126;2024-03-17T05:21:38;99207.72;;;13.69;64.68
60820;BME280;46641;48.904;9.126;2024-03-17T05:26:29;99210.47;;;13.68;64.69
60820;BME280;46641;48.904;9.126;2024-03-17T05:31:21;99210.78;;;13.65;64.82
60820;BME280;46641;48.904;9.126;2024-03-17T05:36:12;99219.34;;;13.67;64.52
60820;BME280;46641;48.904;9.126;2024-03-17T05:41:04;99220.47;;;13.64;64.78
60820;BME280;46641;48.904;9.126;2024-03-17T05:45:59;99213.56;;;13.63;64.69
60820;BME280;46641;48.904;9.126;2024-03-17T05:50:51;99213.72;;;13.62;64.83
60820;BME280;46641;48.904;9.126;2024-03-17T05:55:41;99218.13;;;13.61;64.99
60820;BME280;46641;48.904;9.126;2024-03-17T06:00:34;99209.06;;;13.55;65.01
60820;BME280;46641;48.904;9.126;2024-03-17T06:05:25;99205.28;;;13.58;64.94
60820;BME280;46641;48.904;9.126;2024-03-17T06:10:15;99205.59;;;13.55;64.94
60820;BME280;46641;48.904;9.126;2024-03-17T06:15:06;99205.59;;;13.55;65.01
60820;BME280;46641;48.904;9.126;2024-03-17T06:19:56;99202.28;;;13.53;64.80
60820;BME280;46641;48.904;9.126;2024-03-17T06:24:47;99205.91;;;13.52;65.06
60820;BME280;46641;48.904;9.126;2024-03-17T06:29:37;99203.41;;;13.50;64.97
60820;BME280;46641;48.904;9.126;2024-03-17T06:34:28;99198.97;;;13.51;64.95
60820;BME280;46641;48.904;9.126;2024-03-17T06:39:18;99200.94;;;13.49;65.10
60820;BME280;46641;48.904;9.126;2024-03-17T06:44:11;99198.44;;;13.47;65.02
60820;BME280;46641;48.904;9.126;2024-03-17T06:49:01;99205.50;;;13.47;65.19
60820;BME280;46641;48.904;9.126;2024-03-17T06:53:52;99195.13;;;13.45;65.09
60820;BME280;46641;48.904;9.126;2024-03-17T06:58:42;99196.81;;;13.46;65.11
60820;BME280;46641;48.904;9.126;2024-03-17T07:03:32;99201.53;;;13.43;65.21
60820;BME280;46641;48.904;9.126;2024-03-17T07:08:23;99190.19;;;13.42;65.37
60820;BME280;46641;48.904;9.126;2024-03-17T07:13:15;99198.22;;;13.41;65.39
60820;BME280;46641;48.904;9.126;2024-03-17T07:18:05;99194.59;;;13.42;65.25
60820;BME280;46641;48.904;9.126;2024-03-17T07:22:55;99195.13;;;13.45;65.44
60820;BME280;46641;48.904;9.126;2024-03-17T07:27:46;99196.13;;;13.44;65.28
60820;BME280;46641;48.904;9.126;2024-03-17T07:32:36;99191.16;;;13.41;65.59
60820;BME280;46641;48.904;9.126;2024-03-17T07:37:26;99191.84;;;13.43;65.33
60820;BME280;46641;48.904;9.126;2024-03-17T07:42:17;99195.47;;;13.42;65.29
60820;BME280;46641;48.904;9.126;2024-03-17T07:47:07;99183.13;;;13.43;65.35
60820;BME280;46641;48.904;9.126;2024-03-17T07:51:58;99188.22;;;13.44;65.23
60820;BME280;46641;48.904;9.126;2024-03-17T07:56:48;99182.97;;;13.44;65.43
60820;BME280;46641;48.904;9.126;2024-03-17T08:01:38;99187.94;;;13.47;65.28
60820;BME280;46641;48.904;9.126;2024-03-17T08:06:29;99183.66;;;13.46;65.68
60820;BME280;46641;48.904;9.126;2024-03-17T08:11:19;99181.84;;;13.47;65.43
60820;BME280;46641;48.904;9.126;2024-03-17T08:16:10;99182.38;;;13.50;65.44
60820;BME280;46641;48.904;9.126;2024-03-17T08:21:04;99188.31;;;13.52;65.64
60820;BME280;46641;48.904;9.126;2024-03-17T08:25:57;99183.59;;;13.56;65.83
60820;BME280;46641;48.904;9.126;2024-03-17T08:30:56;99195.63;;;13.59;65.48
60820;BME280;46641;48.904;9.126;2024-03-17T08:36:01;99185.75;;;13.61;65.13
60820;BME280;46641;48.904;9.126;2024-03-17T08:40:52;99185.63;;;13.62;65.74
60820;BME280;46641;48.904;9.126;2024-03-17T08:45:43;99186.16;;;13.66;65.76
60820;BME280;46641;48.904;9.126;2024-03-17T08:50:33;99178.59;;;13.71;65.59
60820;BME280;46641;48.904;9.126;2024-03-17T08:55:24;99174.03;;;13.73;65.49
60820;BME280;46641;48.904;9.126;2024-03-17T09:00:15;99175.25;;;13.78;65.52
60820;BME280;46641;48.904;9.126;2024-03-17T09:05:05;99170.34;;;13.84;65.32
60820;BME280;46641;48.904;9.126;2024-03-17T09:09:55;99171.53;;;13.89;65.00
60820;BME280;46641;48.904;9.126;2024-03-17T09:14:48;99159.28;;;13.98;64.99
60820;BME280;46641;48.904;9.126;2024-03-17T09:19:39;99158.38;;;14.07;65.04
60820;BME280;46641;48.904;9.126;2024-03-17T09:24:29;99153.53;;;14.20;64.77
60820;BME280;46641;48.904;9.126;2024-03-17T09:29:19;99143.03;;;14.29;64.19
60820;BME280;46641;48.904;9.126;2024-03-17T09:34:10;99142.22;;;14.36;64.33
60820;BME280;46641;48.904;9.126;2024-03-17T09:39:00;99148.69;;;14.42;64.42
60820;BME280;46641;48.904;9.126;2024-03-17T09:43:54;99147.94;;;14.49;64.44
60820;BME280;46641;48.904;9.126;2024-03-17T09:48:44;99149.28;;;14.54;64.88
60820;BME280;46641;48.904;9.126;2024-03-17T09:53:34;99143.41;;;14.60;64.88
60820;BME280;46641;48.904;9.126;2024-03-17T09:58:25;99150.50;;;14.67;64.74
60820;BME280;46641;48.904;9.126;2024-03-17T10:03:53;99148.06;;;14.74;64.28
60820;BME280;46641;48.904;9.126;2024-03-17T10:08:55;99145.31;;;14.84;64.73
60820;BME280;46641;48.904;9.126;2024-03-17T10:13:47;99137.25;;;14.85;65.02
60820;BME280;46641;48.904;9.126;2024-03-17T10:18:39;99135.31;;;14.95;64.90
60820;BME280;46641;48.904;9.126;2024-03-17T10:23:29;99140.91;;;15.01;64.63
60820;BME280;46641;48.904;9.126;2024-03-17T10:28:20;99142.56;;;15.02;64.38
60820;BME280;46641;48.904;9.126;2024-03-17T10:33:22;99143.56;;;15.09;63.51
60820;BME280;46641;48.904;9.126;2024-03-17T10:38:13;99137.97;;;15.12;64.64
60820;BME280;46641;48.904;9.126;2024-03-17T10:43:03;99141.13;;;15.24;64.25
60820;BME280;46641;48.904;9.126;2024-03-17T10:47:53;99149.53;;;15.27;64.68
60820;BME280;46641;48.904;9.126;2024-03-17T10:52:45;99147.94;;;15.34;64.53
60820;BME280;46641;48.904;9.126;2024-03-17T11:02:27;99146.59;;;15.47;64.17
60820;BME280;46641;48.904;9.126;2024-03-17T11:07:26;99146.63;;;15.55;63.96
60820;BME280;46641;48.904;9.126;2024-03-17T11:17:35;99137.44;;;15.67;64.36
60820;BME280;46641;48.904;9.126;2024-03-17T11:22:44;99127.88;;;15.74;63.86
60820;BME280;46641;48.904;9.126;2024-03-17T11:27:41;99125.53;;;15.79;64.08
60820;BME280;46641;48.904;9.126;2024-03-17T11:32:33;99116.00;;;15.86;64.62
60820;BME280;46641;48.904;9.126;2024-03-17T11:37:42;99099.16;;;15.96;63.74
60820;BME280;46641;48.904;9.126;2024-03-17T11:42:34;99105.06;;;16.06;64.26
60820;BME280;46641;48.904;9.126;2024-03-17T11:47:33;99098.41;;;16.18;62.59
60820;BME280;46641;48.904;9.126;2024-03-17T11:52:24;99086.38;;;16.24;65.00
60820;BME280;46641;48.904;9.126;2024-03-17T11:57:20;99084.00;;;16.37;63.79
60820;BME280;46641;48.904;9.126;2024-03-17T12:07:14;99078.16;;;16.58;64.98
60820;BME280;46641;48.904;9.126;2024-03-17T12:12:26;99066.84;;;16.72;63.82
60820;BME280;46641;48.904;9.126;2024-03-17T12:17:25;99062.19;;;16.82;64.64
60820;BME280;46641;48.904;9.126;2024-03-17T12:22:20;99060.72;;;16.41;63.25
60820;BME280;46641;48.904;9.126;2024-03-17T12:27:19;99059.13;;;16.71;63.32
60820;BME280;46641;48.904;9.126;2024-03-17T12:37:01;99051.50;;;17.07;63.00
60820;BME280;46641;48.904;9.126;2024-03-17T12:42:09;99038.66;;;17.19;62.10
60820;BME280;46641;48.904;9.126;2024-03-17T12:47:04;99038.59;;;17.27;62.07
60820;BME280;46641;48.904;9.126;2024-03-17T12:51:56;99030.66;;;17.27;62.99
60820;BME280;46641;48.904;9.126;2024-03-17T12:56:46;99027.13;;;17.35;62.88
60820;BME280;46641;48.904;9.126;2024-03-17T13:02:01;99018.31;;;17.42;61.76
60820;BME280;46641;48.904;9.126;2024-03-17T13:06:51;99029.25;;;17.39;62.41
60820;BME280;46641;48.904;9.126;2024-03-17T13:11:42;99022.28;;;17.38;62.41
60820;BME280;46641;48.904;9.126;2024-03-17T13:16:32;99023.41;;;17.44;62.78
60820;BME280;46641;48.904;9.126;2024-03-17T13:21:22;99014.09;;;17.48;62.40
60820;BME280;46641;48.904;9.126;2024-03-17T13:26:13;99012.78;;;17.52;62.65
60820;BME280;46641;48.904;9.126;2024-03-17T13:31:03;99010.38;;;17.57;62.27
60820;BME280;46641;48.904;9.126;2024-03-17T13:35:55;99006.56;;;17.60;61.29
60820;BME280;46641;48.904;9.126;2024-03-17T13:40:46;99004.41;;;16.71;56.29
60820;BME280;46641;48.904;9.126;2024-03-17T13:45:41;98992.19;;;16.70;55.67
60820;BME280;46641;48.904;9.126;2024-03-17T13:50:33;98989.47;;;16.55;57.28
60820;BME280;46641;48.904;9.126;2024-03-17T13:55:25;98974.78;;;17.07;58.12
60820;BME280;46641;48.904;9.126;2024-03-17T14:00:15;98980.16;;;17.37;58.27
60820;BME280;46641;48.904;9.126;2024-03-17T14:05:06;98982.28;;;17.56;57.85
60820;BME280;46641;48.904;9.126;2024-03-17T14:09:57;98981.38;;;17.64;58.00
60820;BME280;46641;48.904;9.126;2024-03-17T14:14:48;98971.91;;;17.69;58.59
60820;BME280;46641;48.904;9.126;2024-03-17T14:19:38;98953.66;;;17.74;58.54
60820;BME280;46641;48.904;9.126;2024-03-17T14:24:28;98953.94;;;17.80;58.86
60820;BME280;46641;48.904;9.126;2024-03-17T14:29:19;98950.28;;;17.81;58.70
60820;BME280;46641;48.904;9.126;2024-03-17T14:34:10;98951.66;;;17.77;58.61
60820;BME280;46641;48.904;9.126;2024-03-17T14:39:01;98942.56;;;17.71;58.51
60820;BME280;46641;48.904;9.126;2024-03-17T14:43:51;98950.34;;;17.72;58.60
60820;BME280;46641;48.904;9.126;2024-03-17T14:48:42;98938.25;;;17.78;59.34
60820;BME280;46641;48.904;9.126;2024-03-17T14:53:33;98937.03;;;17.81;58.98
60820;BME280;46641;48.904;9.126;2024-03-17T14:58:23;98935.03;;;17.83;58.62
60820;BME280;46641;48.904;9.126;2024-03-17T15:03:14;98933.66;;;17.87;59.15
60820;BME280;46641;48.904;9.126;2024-03-17T15:08:04;98923.34;;;17.92;58.67
60820;BME280;46641;48.904;9.126;2024-03-17T15:12:54;98918.06;;;17.92;59.03
60820;BME280;46641;48.904;9.126;2024-03-17T15:17:45;98920.50;;;17.93;58.51
60820;BME280;46641;48.904;9.126;2024-03-17T15:22:35;98926.00;;;17.92;58.60
60820;BME280;46641;48.904;9.126;2024-03-17T15:27:25;98930.28;;;17.93;58.91
60820;BME280;46641;48.904;9.126;2024-03-17T15:32:16;98918.88;;;17.92;58.32
60820;BME280;46641;48.904;9.126;2024-03-17T15:37:07;98918.06;;;17.92;58.57
60820;BME280;46641;48.904;9.126;2024-03-17T15:41:58;98920.34;;;17.95;59.14
60820;BME280;46641;48.904;9.126;2024-03-17T15:46:48;98905.06;;;17.97;58.89
60820;BME280;46641;48.904;9.126;2024-03-17T15:51:39;98900.59;;;17.97;59.20
60820;BME280;46641;48.904;9.126;2024-03-17T15:56:29;98915.28;;;18.00;59.15
60820;BME280;46641;48.904;9.126;2024-03-17T16:01:19;98913.66;;;17.99;59.03
60820;BME280;46641;48.904;9.126;2024-03-17T16:06:16;98908.00;;;18.02;57.96
60820;BME280;46641;48.904;9.126;2024-03-17T16:11:06;98905.47;;;17.94;58.43
60820;BME280;46641;48.904;9.126;2024-03-17T16:15:59;98897.97;;;17.97;59.34
60820;BME280;46641;48.904;9.126;2024-03-17T16:25:42;98889.66;;;18.01;58.83
60820;BME280;46641;48.904;9.126;2024-03-17T16:30:32;98886.16;;;18.00;58.48
60820;BME280;46641;48.904;9.126;2024-03-17T16:35:22;98887.00;;;18.01;58.96
60820;BME280;46641;48.904;9.126;2024-03-17T16:40:13;98892.47;;;17.99;58.99
60820;BME280;46641;48.904;9.126;2024-03-17T16:45:04;98893.28;;;17.99;58.76
60820;BME280;46641;48.904;9.126;2024-03-17T16:49:55;98888.78;;;18.00;58.39
60820;BME280;46641;48.904;9.126;2024-03-17T16:54:46;98881.50;;;18.02;58.45
60820;BME280;46641;48.904;9.126;2024-03-17T16:59:38;98876.41;;;18.01;58.57
60820;BME280;46641;48.904;9.126;2024-03-17T17:04:28;98879.22;;;17.99;58.52
60820;BME280;46641;48.904;9.126;2024-03-17T17:09:18;98873.28;;;17.97;58.22
60820;BME280;46641;48.904;9.126;2024-03-17T17:14:09;98869.19;;;17.94;58.69
60820;BME280;46641;48.904;9.126;2024-03-17T17:19:02;98869.38;;;17.93;58.17
60820;BME280;46641;48.904;9.126;2024-03-17T17:23:54;98864.06;;;17.93;57.69
60820;BME280;46641;48.904;9.126;2024-03-17T17:28:44;98868.56;;;17.92;57.99
60820;BME280;46641;48.904;9.126;2024-03-17T17:33:34;98872.59;;;17.88;58.27
60820;BME280;46641;48.904;9.126;2024-03-17T17:38:26;98859.50;;;17.87;57.82
60820;BME280;46641;48.904;9.126;2024-03-17T17:43:18;98865.44;;;17.89;57.89
60820;BME280;46641;48.904;9.126;2024-03-17T17:48:08;98872.75;;;17.87;58.14
60820;BME280;46641;48.904;9.126;2024-03-17T17:52:58;98871.13;;;17.86;58.06
60820;BME280;46641;48.904;9.126;2024-03-17T17:57:49;98876.78;;;17.83;57.93
60820;BME280;46641;48.904;9.126;2024-03-17T18:02:39;98872.50;;;17.82;58.36
60820;BME280;46641;48.904;9.126;2024-03-17T18:07:29;98872.88;;;17.79;58.67
60820;BME280;46641;48.904;9.126;2024-03-17T18:12:20;98863.81;;;17.73;58.00
60820;BME280;46641;48.904;9.126;2024-03-17T18:17:10;98872.94;;;17.70;58.53
60820;BME280;46641;48.904;9.126;2024-03-17T18:22:01;98873.28;;;17.67;58.25
60820;BME280;46641;48.904;9.126;2024-03-17T18:26:53;98871.84;;;17.65;58.54
60820;BME280;46641;48.904;9.126;2024-03-17T18:31:43;98862.63;;;17.61;58.45
60820;BME280;46641;48.904;9.126;2024-03-17T18:36:34;98870.75;;;17.59;58.31
60820;BME280;46641;48.904;9.126;2024-03-17T18:41:24;98866.66;;;17.57;58.52
60820;BME280;46641;48.904;9.126;2024-03-17T18:46:16;98867.22;;;17.52;58.61
60820;BME280;46641;48.904;9.126;2024-03-17T18:51:07;98880.81;;;17.49;58.54
60820;BME280;46641;48.904;9.126;2024-03-17T18:56:02;98880.53;;;17.44;58.02
60820;BME280;46641;48.904;9.126;2024-03-17T19:00:53;98877.41;;;17.40;58.98
60820;BME280;46641;48.904;9.126;2024-03-17T19:05:44;98879.78;;;17.35;58.89
60820;BME280;46641;48.904;9.126;2024-03-17T19:10:35;98882.16;;;17.30;59.10
60820;BME280;46641;48.904;9.126;2024-03-17T19:15:26;98887.00;;;17.26;59.28
60820;BME280;46641;48.904;9.126;2024-03-17T19:20:16;98887.34;;;17.23;59.05
60820;BME280;46641;48.904;9.126;2024-03-17T19:25:08;98887.72;;;17.20;59.40
60820;BME280;46641;48.904;9.126;2024-03-17T19:29:59;98881.16;;;17.16;59.30
60820;BME280;46641;48.904;9.126;2024-03-17T19:34:49;98884.16;;;17.13;59.64
60820;BME280;46641;48.904;9.126;2024-03-17T19:39:39;98879.38;;;17.09;59.36
60820;BME280;46641;48.904;9.126;2024-03-17T19:44:30;98874.47;;;17.05;59.32
60820;BME280;46641;48.904;9.126;2024-03-17T19:49:21;98863.25;;;17.03;59.53
60820;BME280;46641;48.904;9.126;2024-03-17T19:54:13;98860.97;;;17.00;59.71
60820;BME280;46641;48.904;9.126;2024-03-17T19:59:03;98860.50;;;16.97;59.69
60820;BME280;46641;48.904;9.126;2024-03-17T20:03:53;98869.63;;;16.94;59.67
60820;BME280;46641;48.904;9.126;2024-03-17T20:08:43;98872.44;;;16.93;59.86
60820;BME280;46641;48.904;9.126;2024-03-17T20:13:34;98868.16;;;16.92;59.81
60820;BME280;46641;48.904;9.126;2024-03-17T20:18:24;98859.75;;;16.88;59.80
60820;BME280;46641;48.904;9.126;2024-03-17T20:23:14;98852.03;;;16.87;59.83
60820;BME280;46641;48.904;9.126;2024-03-17T20:28:05;98836.50;;;16.84;59.87
60820;BME280;46641;48.904;9.126;2024-03-17T20:32:57;98836.66;;;16.82;59.96
60820;BME280;46641;48.904;9.126;2024-03-17T20:37:49;98829.09;;;16.79;60.17
60820;BME280;46641;48.904;9.126;2024-03-17T20:42:41;98835.56;;;16.76;59.94
60820;BME280;46641;48.904;9.126;2024-03-17T20:47:32;98831.44;;;16.74;59.89
60820;BME280;46641;48.904;9.126;2024-03-17T20:52:22;98822.66;;;16.73;60.13
60820;BME280;46641;48.904;9.126;2024-03-17T20:57:13;98826.69;;;16.69;60.06
60820;BME280;46641;48.904;9.126;2024-03-17T21:02:03;98823.41;;;16.67;59.91
60820;BME280;46641;48.904;9.126;2024-03-17T21:06:55;98825.41;;;16.65;60.27
60820;BME280;46641;48.904;9.126;2024-03-17T21:11:49;98810.72;;;16.63;60.04
60820;BME280;46641;48.904;9.126;2024-03-17T21:16:39;98812.72;;;16.60;60.22
60820;BME280;46641;48.904;9.126;2024-03-17T21:21:30;98811.44;;;16.56;60.44
60820;BME280;46641;48.904;9.126;2024-03-17T21:26:20;98802.03;;;16.54;60.37
60820;BME280;46641;48.904;9.126;2024-03-17T21:31:10;98797.75;;;16.53;60.36
60820;BME280;46641;48.904;9.126;2024-03-17T21:36:07;98801.75;;;16.49;59.97
60820;BME280;46641;48.904;9.126;2024-03-17T21:40:57;98792.56;;;16.45;60.37
60820;BME280;46641;48.904;9.126;2024-03-17T21:45:48;98793.72;;;16.42;60.51
60820;BME280;46641;48.904;9.126;2024-03-17T21:50:38;98784.16;;;16.41;60.32
60820;BME280;46641;48.904;9.126;2024-03-17T21:55:28;98781.69;;;16.40;60.72
60820;BME280;46641;48.904;9.126;2024-03-17T22:00:19;98774.94;;;16.37;60.64
60820;BME280;46641;48.904;9.126;2024-03-17T22:05:11;98767.56;;;16.32;60.70
60820;BME280;46641;48.904;9.126;2024-03-17T22:10:01;98770.81;;;16.34;60.74
60820;BME280;46641;48.904;9.126;2024-03-17T22:14:56;98775.47;;;16.32;60.80
60820;BME280;46641;48.904;9.126;2024-03-17T22:19:47;98764.25;;;16.30;60.70
60820;BME280;46641;48.904;9.126;2024-03-17T22:24:37;98764.44;;;16.29;60.69
60820;BME280;46641;48.904;9.126;2024-03-17T22:29:28;98754.03;;;16.27;60.83
60820;BME280;46641;48.904;9.126;2024-03-17T22:34:18;98746.47;;;16.24;60.82
60820;BME280;46641;48.904;9.126;2024-03-17T22:39:09;98753.78;;;16.22;61.03
60820;BME280;46641;48.904;9.126;2024-03-17T22:44:03;98745.19;;;16.20;60.79
60820;BME280;46641;48.904;9.126;2024-03-17T22:48:53;98734.97;;;16.17;60.91
60820;BME280;46641;48.904;9.126;2024-03-17T22:53:44;98738.78;;;16.15;61.15
60820;BME280;46641;48.904;9.126;2024-03-17T22:58:35;98735.53;;;16.12;61.25
60820;BME280;46641;48.904;9.126;2024-03-17T23:03:36;98735.53;;;16.12;61.13
60820;BME280;46641;48.904;9.126;2024-03-17T23:08:30;98740.00;;;16.12;61.13
60820;BME280;46641;48.904;9.126;2024-03-17T23:13:21;98733.41;;;16.08;61.48
60820;BME280;46641;48.904;9.126;2024-03-17T23:18:11;98731.97;;;16.05;61.42
60820;BME280;46641;48.904;9.126;2024-03-17T23:23:04;98734.75;;;16.04;61.20
60820;BME280;46641;48.904;9.126;2024-03-17T23:27:57;98724.56;;;16.01;61.17
60820;BME280;46641;48.904;9.126;2024-03-17T23:32:48;98721.91;;;16.01;61.30
60820;BME280;46641;48.904;9.126;2024-03-17T23:37:39;98723.28;;;15.97;61.71
60820;BME280;46641;48.904;9.126;2024-03-17T23:42:29;98728.09;;;15.93;61.60
60820;BME280;46641;48.904;9.126;2024-03-17T23:47:19;98722.97;;;15.92;61.63
60820;BME280;46641;48.904;9.126;2024-03-17T23:52:10;98723.16;;;15.90;61.62
60820;BME280;46641;48.904;9.126;2024-03-17T23:57:00;98715.25;;;15.90;61.73
